Time;durP1;ratioP1;P1;durP2;ratioP2;P2;SDS_P1;SDS_P2;PMS_P1;PMS_P2;Temp;Humidity;BMP_temperature;BMP_pressure;BME280_temperature;BME280_humidity;BME280_pressure;Samples;Min_cycle;Max_cycle;Signal;HPM_P1;HPM_P2
2021/06/04 00:04:04;;;;;;;32.00;23.73;;;;;17.60;101577.00;;;;10476316;28;20197;-77
2021/06/04 00:09:09;;;;;;;31.23;25.27;;;;;17.40;101566.00;;;;10532143;28;20189;-77
2021/06/04 00:14:24;;;;;;;31.33;24.87;;;;;17.40;101568.00;;;;10552815;28;20195;-77
2021/06/04 00:19:30;;;;;;;34.97;25.53;;;;;17.30;101571.00;;;;10517291;28;20567;-77
2021/06/04 00:24:33;;;;;;;32.83;24.23;;;;;17.30;101563.00;;;;10519863;28;20648;-77
2021/06/04 00:29:38;;;;;;;29.60;22.77;;;;;17.20;101566.00;;;;10477774;28;20181;-77
2021/06/04 00:34:40;;;;;;;32.60;23.80;;;;;17.00;101566.00;;;;10525245;28;20258;-77
2021/06/04 00:39:42;;;;;;;37.73;25.97;;;;;16.90;101563.00;;;;10493860;28;20705;-77
2021/06/04 00:44:46;;;;;;;29.50;24.37;;;;;17.00;101558.00;;;;10525285;28;20276;-77
2021/06/04 00:49:49;;;;;;;38.07;26.10;;;;;17.00;101562.00;;;;10485668;28;20189;-77
2021/06/04 00:54:53;;;;;;;37.50;28.20;;;;;17.00;101556.00;;;;10481072;28;20201;-77
2021/06/04 01:00:11;;;;;;;42.87;28.63;;;;;17.10;101551.00;;;;10476448;28;20205;-77
2021/06/04 01:05:18;;;;;;;37.70;27.73;;;;;17.10;101558.00;;;;10489110;28;20217;-77
2021/06/04 01:10:48;;;;;;;36.77;24.77;;;;;17.10;101559.00;;;;10504617;28;20647;-77
2021/06/04 01:16:20;;;;;;;30.97;24.60;;;;;17.10;101572.00;;;;10504991;28;20243;-77
2021/06/04 01:21:32;;;;;;;35.07;25.17;;;;;17.10;101572.00;;;;10543729;28;20195;-77
2021/06/04 01:26:41;;;;;;;34.17;24.00;;;;;17.10;101560.00;;;;10513104;28;20185;-77
2021/06/04 01:31:56;;;;;;;31.03;25.30;;;;;16.90;101567.00;;;;10467038;28;20224;-77
2021/06/04 01:37:08;;;;;;;31.40;25.00;;;;;16.80;101563.00;;;;10462777;28;20180;-77
2021/06/04 01:42:26;;;;;;;36.47;26.77;;;;;16.70;101556.00;;;;10509017;28;20759;-77
2021/06/04 01:47:34;;;;;;;34.83;26.20;;;;;16.60;101566.00;;;;10461194;28;20201;-77
2021/06/04 01:52:39;;;;;;;37.30;27.07;;;;;16.60;101563.00;;;;10482424;28;20193;-77
2021/06/04 01:57:56;;;;;;;38.23;27.53;;;;;16.50;101566.00;;;;10450983;28;20340;-77
2021/06/04 02:03:04;;;;;;;37.53;27.93;;;;;16.40;101543.00;;;;10535016;28;20581;-77
2021/06/04 02:08:25;;;;;;;41.83;29.23;;;;;16.40;101527.00;;;;10491432;28;20209;-77
2021/06/04 02:13:27;;;;;;;39.07;28.53;;;;;16.30;101551.00;;;;10523201;28;20189;-77
2021/06/04 02:18:54;;;;;;;41.70;28.43;;;;;16.20;101544.00;;;;10452219;28;20625;-77
2021/06/04 02:24:17;;;;;;;42.93;31.70;;;;;16.20;101542.00;;;;10474936;28;20204;-77
2021/06/04 02:29:40;;;;;;;43.03;29.87;;;;;16.30;101548.00;;;;10506700;28;20213;-78
2021/06/04 02:34:48;;;;;;;39.00;28.10;;;;;16.30;101547.00;;;;10522151;28;20227;-78
2021/06/04 02:39:57;;;;;;;39.20;27.63;;;;;16.20;101544.00;;;;10450097;28;20219;-78
2021/06/04 02:45:08;;;;;;;44.13;27.57;;;;;16.10;101557.00;;;;10484366;28;20196;-78
2021/06/04 02:50:37;;;;;;;48.90;30.17;;;;;16.00;101545.00;;;;10451149;28;20221;-78
2021/06/04 02:56:00;;;;;;;39.30;29.13;;;;;15.90;101548.00;;;;10492546;28;20208;-77
2021/06/04 03:01:08;;;;;;;41.57;29.60;;;;;15.90;101542.00;;;;10450275;28;20197;-77
2021/06/04 03:06:13;;;;;;;42.17;30.37;;;;;15.90;101549.00;;;;10522822;28;20688;-78
2021/06/04 03:11:18;;;;;;;39.13;28.80;;;;;15.90;101553.00;;;;10476795;28;20224;-78
2021/06/04 03:16:24;;;;;;;38.87;29.50;;;;;15.90;101557.00;;;;10505179;28;20193;-76
2021/06/04 03:21:38;;;;;;;47.07;28.53;;;;;16.00;101548.00;;;;10473521;28;20186;-76
2021/06/04 03:26:43;;;;;;;40.73;30.23;;;;;16.00;101550.00;;;;10463895;28;20208;-76
2021/06/04 03:31:51;;;;;;;41.70;29.90;;;;;16.00;101554.00;;;;10487784;28;20239;-75
2021/06/04 03:36:57;;;;;;;38.80;28.10;;;;;15.90;101543.00;;;;10490689;28;20198;-76
2021/06/04 03:42:01;;;;;;;41.33;28.07;;;;;15.80;101577.00;;;;10494161;28;20279;-76
2021/06/04 03:47:04;;;;;;;34.83;27.13;;;;;15.70;101578.00;;;;10489928;28;20201;-78
2021/06/04 03:52:13;;;;;;;41.73;29.20;;;;;15.70;101572.00;;;;10495421;28;20193;-76
2021/06/04 03:57:19;;;;;;;42.20;29.53;;;;;15.80;101564.00;;;;10493086;28;20208;-78
2021/06/04 04:02:26;;;;;;;42.20;29.77;;;;;15.80;101553.00;;;;10485783;28;20200;-78
2021/06/04 04:07:30;;;;;;;43.57;29.90;;;;;15.90;101548.00;;;;10525912;28;20225;-76
2021/06/04 04:12:32;;;;;;;48.80;26.90;;;;;16.10;101552.00;;;;10494303;28;20224;-76
2021/06/04 04:17:34;;;;;;;36.53;27.10;;;;;16.30;101553.00;;;;10545700;28;20193;-76
2021/06/04 04:22:37;;;;;;;41.73;27.53;;;;;16.60;101548.00;;;;10511469;28;20193;-76
2021/06/04 04:27:39;;;;;;;41.70;29.10;;;;;16.70;101565.00;;;;10491176;28;20228;-76
2021/06/04 04:32:41;;;;;;;42.83;30.23;;;;;16.90;101565.00;;;;10468733;28;20977;-76
2021/06/04 04:37:43;;;;;;;40.50;29.70;;;;;17.10;101575.00;;;;10485553;28;20190;-76
2021/06/04 04:42:46;;;;;;;52.23;33.90;;;;;17.30;101582.00;;;;10468774;28;20201;-76
2021/06/04 04:47:48;;;;;;;48.97;33.83;;;;;17.40;101590.00;;;;10505175;28;20296;-76
2021/06/04 04:52:50;;;;;;;39.07;30.93;;;;;17.50;101605.00;;;;10493319;28;20201;-76
2021/06/04 04:57:53;;;;;;;43.77;29.60;;;;;17.70;101617.00;;;;10491655;28;20220;-76
2021/06/04 05:02:55;;;;;;;37.67;26.57;;;;;18.00;101624.00;;;;10542956;28;20197;-76
2021/06/04 05:07:58;;;;;;;36.05;24.73;;;;;18.20;101620.00;;;;10526876;28;20201;-76
2021/06/04 05:13:02;;;;;;;33.30;24.40;;;;;18.40;101621.00;;;;10540151;28;20189;-76
2021/06/04 05:18:06;;;;;;;33.17;23.48;;;;;18.50;101624.00;;;;10491775;28;20552;-76
2021/06/04 05:23:09;;;;;;;35.63;23.63;;;;;18.70;101627.00;;;;10507232;28;20200;-76
2021/06/04 05:28:13;;;;;;;31.13;21.23;;;;;18.80;101633.00;;;;10491824;28;20263;-76
2021/06/04 05:33:21;;;;;;;29.38;22.42;;;;;18.90;101638.00;;;;10479239;28;20232;-76
2021/06/04 05:38:24;;;;;;;29.65;21.02;;;;;19.00;101640.00;;;;10485637;28;20190;-76
2021/06/04 05:43:29;;;;;;;27.27;22.77;;;;;19.00;101629.00;;;;10449926;28;20595;-79
2021/06/04 05:48:31;;;;;;;30.20;22.42;;;;;19.10;101632.00;;;;10480922;28;20283;-77
2021/06/04 05:53:37;;;;;;;26.77;21.35;;;;;19.20;101627.00;;;;10507414;28;20197;-78
2021/06/04 05:58:39;;;;;;;26.63;20.20;;;;;19.50;101625.00;;;;10486584;28;20197;-78
2021/06/04 06:03:41;;;;;;;28.15;21.20;;;;;19.70;101625.00;;;;10528601;28;20655;-78
2021/06/04 06:08:44;;;;;;;27.33;20.75;;;;;19.90;101627.00;;;;10511473;28;20197;-78
2021/06/04 06:13:46;;;;;;;29.92;20.85;;;;;20.10;101619.00;;;;10509588;28;21000;-78
2021/06/04 06:18:49;;;;;;;29.55;20.10;;;;;20.20;101614.00;;;;10508883;28;20256;-78
2021/06/04 06:23:51;;;;;;;22.08;18.45;;;;;20.80;101608.00;;;;10491046;28;20211;-78
2021/06/04 06:28:53;;;;;;;24.65;18.35;;;;;21.20;101623.00;;;;10509791;28;20200;-78
2021/06/04 06:33:55;;;;;;;23.60;16.73;;;;;21.70;101614.00;;;;10485447;28;20225;-77
2021/06/04 06:39:05;;;;;;;20.00;15.00;;;;;22.20;101613.00;;;;10490902;28;20189;-78
2021/06/04 06:44:09;;;;;;;21.60;15.65;;;;;23.00;101595.00;;;;10508692;28;20212;-76
2021/06/04 06:49:12;;;;;;;19.67;14.77;;;;;23.60;101593.00;;;;10500925;28;20237;-78
2021/06/04 06:54:18;;;;;;;15.68;13.32;;;;;24.00;101602.00;;;;10504361;28;20198;-75
2021/06/04 06:59:22;;;;;;;20.85;15.18;;;;;24.20;101603.00;;;;10514142;28;20197;-77
2021/06/04 07:04:24;;;;;;;19.00;16.75;;;;;24.50;101594.00;;;;10494726;28;20185;-76
2021/06/04 07:09:27;;;;;;;22.95;14.70;;;;;24.70;101578.00;;;;10512309;28;20283;-75
2021/06/04 07:14:33;;;;;;;18.88;14.05;;;;;25.00;101580.00;;;;10503958;28;20656;-77
2021/06/04 07:19:36;;;;;;;22.05;16.20;;;;;25.40;101563.00;;;;10497257;28;20193;-75
2021/06/04 07:24:38;;;;;;;21.67;15.25;;;;;25.60;101568.00;;;;10501957;28;20185;-75
2021/06/04 07:29:42;;;;;;;14.23;12.60;;;;;25.90;101571.00;;;;10482970;28;20213;-78
2021/06/04 07:34:44;;;;;;;16.20;12.73;;;;;26.10;101572.00;;;;10494078;28;20628;-78
2021/06/04 07:39:46;;;;;;;13.38;11.40;;;;;26.20;101574.00;;;;10512161;28;20215;-77
2021/06/04 07:44:48;;;;;;;16.40;11.40;;;;;26.60;101569.00;;;;10488908;28;20204;-77
2021/06/04 07:49:50;;;;;;;15.00;12.23;;;;;26.80;101569.00;;;;10521723;28;20710;-76
2021/06/04 07:54:58;;;;;;;15.02;10.45;;;;;27.20;101574.00;;;;10505970;28;20554;-76
2021/06/04 08:00:01;;;;;;;11.85;8.93;;;;;27.80;101568.00;;;;10518040;28;20196;-77
2021/06/04 08:05:06;;;;;;;15.65;10.38;;;;;28.20;101572.00;;;;10522919;28;20201;-77
2021/06/04 08:10:10;;;;;;;12.48;9.57;;;;;28.60;101582.00;;;;10520323;28;20208;-77
2021/06/04 08:15:34;;;;;;;13.93;9.70;;;;;28.90;101577.00;;;;10515924;28;20193;-77
2021/06/04 08:20:38;;;;;;;15.38;9.88;;;;;29.20;101573.00;;;;10482204;28;20208;-77
2021/06/04 08:25:45;;;;;;;13.27;9.82;;;;;29.70;101572.00;;;;10514685;28;20189;-76
2021/06/04 08:30:48;;;;;;;10.85;8.93;;;;;29.90;101573.00;;;;10516300;28;20312;-77
2021/06/04 08:35:51;;;;;;;13.07;9.57;;;;;29.60;101576.00;;;;10523258;28;20216;-77
2021/06/04 08:40:53;;;;;;;16.38;10.82;;;;;29.40;101570.00;;;;10517932;28;20276;-77
2021/06/04 08:46:19;;;;;;;14.48;10.77;;;;;29.80;101568.00;;;;10493838;28;20194;-78
2021/06/04 08:51:32;;;;;;;14.27;11.32;;;;;29.80;101561.00;;;;10469203;28;20212;-78
2021/06/04 08:56:38;;;;;;;14.95;12.25;;;;;30.00;101562.00;;;;10517236;28;20216;-78
2021/06/04 09:01:48;;;;;;;18.23;13.38;;;;;30.10;101554.00;;;;10506693;28;20212;-78
2021/06/04 09:07:00;;;;;;;20.98;15.50;;;;;30.30;101552.00;;;;10522069;28;20196;-77
2021/06/04 09:12:10;;;;;;;18.92;14.65;;;;;30.90;101537.00;;;;10495120;28;20208;-77
2021/06/04 09:17:22;;;;;;;17.10;15.15;;;;;30.80;101531.00;;;;10495368;28;20193;-77
2021/06/04 09:22:28;;;;;;;14.63;13.05;;;;;30.90;101536.00;;;;10512673;28;20189;-77
2021/06/04 09:27:41;;;;;;;18.90;15.40;;;;;31.10;101536.00;;;;10504681;28;20215;-77
2021/06/04 09:33:04;;;;;;;17.88;15.48;;;;;31.50;101539.00;;;;10480357;28;20244;-77
2021/06/04 09:38:17;;;;;;;16.35;13.77;;;;;31.90;101532.00;;;;10492713;28;20193;-77
2021/06/04 09:43:28;;;;;;;19.17;15.20;;;;;31.50;101526.00;;;;10505097;28;20189;-77
2021/06/04 09:48:52;;;;;;;23.10;14.55;;;;;30.80;101530.00;;;;10530325;28;20207;-77
2021/06/04 09:53:55;;;;;;;22.42;19.00;;;;;31.30;101519.00;;;;10508045;28;20206;-78
2021/06/04 09:59:03;;;;;;;24.10;18.73;;;;;32.60;101516.00;;;;10517535;28;20284;-77
2021/06/04 10:04:14;;;;;;;21.45;17.75;;;;;32.40;101512.00;;;;10521590;28;20560;-77
2021/06/04 10:09:33;;;;;;;21.13;17.23;;;;;32.50;101502.00;;;;10490072;28;20225;-77
2021/06/04 10:19:51;;;;;;;20.70;18.00;;;;;34.50;101504.00;;;;10451742;28;20194;-77
2021/06/04 10:25:13;;;;;;;20.65;18.40;;;;;35.50;101497.00;;;;10493333;28;20200;-77
2021/06/04 10:30:25;;;;;;;18.98;17.05;;;;;35.30;101495.00;;;;10510432;28;20258;-79
2021/06/04 10:35:33;;;;;;;21.92;19.05;;;;;34.70;101489.00;;;;10506442;28;20216;-77
2021/06/04 10:40:45;;;;;;;17.85;16.15;;;;;34.40;101482.00;;;;10499977;28;20212;-79
2021/06/04 10:45:55;;;;;;;21.58;19.35;;;;;34.10;101479.00;;;;10495281;28;20564;-79
2021/06/04 10:51:22;;;;;;;17.30;15.50;;;;;34.50;101471.00;;;;10489263;28;20195;-79
2021/06/04 10:56:33;;;;;;;19.30;17.30;;;;;34.30;101455.00;;;;10485740;28;20202;-78
2021/06/04 11:01:49;;;;;;;18.77;15.93;;;;;34.20;101457.00;;;;10526738;28;20209;-78
2021/06/04 11:07:18;;;;;;;21.52;17.30;;;;;34.20;101441.00;;;;10507011;28;20184;-78
2021/06/04 11:12:34;;;;;;;24.98;20.75;;;;;34.30;101440.00;;;;10482739;28;20779;-78
2021/06/04 11:17:47;;;;;;;18.73;16.30;;;;;34.40;101416.00;;;;10488192;28;20208;-79
2021/06/04 11:23:21;;;;;;;21.33;19.08;;;;;34.90;101415.00;;;;10471407;28;20204;-78
2021/06/04 11:28:42;;;;;;;18.58;16.52;;;;;35.60;101416.00;;;;10485751;28;20208;-79
2021/06/04 11:33:50;;;;;;;19.05;17.15;;;;;34.70;101422.00;;;;10433585;28;20259;-79
2021/06/04 11:38:57;;;;;;;20.35;18.33;;;;;33.10;101421.00;;;;10487233;28;20209;-78
2021/06/04 11:44:24;;;;;;;20.10;17.48;;;;;31.20;101427.00;;;;10507933;28;20216;-79
2021/06/04 11:49:26;;;;;;;18.80;16.90;;;;;30.80;101418.00;;;;10485203;28;20193;-77
2021/06/04 11:54:34;;;;;;;20.27;16.23;;;;;30.60;101412.00;;;;10472547;28;20765;-78
2021/06/04 11:59:54;;;;;;;17.35;15.43;;;;;30.60;101399.00;;;;10510812;28;20295;-78
2021/06/04 12:05:31;;;;;;;16.63;14.50;;;;;31.80;101370.00;;;;10525245;28;20204;-78
2021/06/04 12:10:51;;;;;;;17.02;14.57;;;;;33.70;101362.00;;;;10490540;28;20208;-79
2021/06/04 12:15:53;;;;;;;21.63;16.60;;;;;34.30;101365.00;;;;10467268;28;20193;-78
2021/06/04 12:20:55;;;;;;;17.25;14.35;;;;;34.90;101380.00;;;;10498795;28;20221;-79
2021/06/04 12:26:02;;;;;;;16.55;14.95;;;;;33.80;101386.00;;;;10510197;28;20300;-79
2021/06/04 12:31:11;;;;;;;16.27;14.65;;;;;32.30;101389.00;;;;10527030;28;20188;-79
2021/06/04 12:36:42;;;;;;;16.02;14.52;;;;;30.90;101383.00;;;;10531721;28;20208;-78
2021/06/04 12:41:44;;;;;;;16.15;14.10;;;;;30.10;101377.00;;;;10524066;28;20233;-78
2021/06/04 12:46:47;;;;;;;19.13;14.13;;;;;29.10;101390.00;;;;10514248;28;20232;-78
2021/06/04 12:51:51;;;;;;;17.23;12.80;;;;;28.10;101364.00;;;;10497622;28;20247;-77
2021/06/04 12:56:57;;;;;;;15.30;13.60;;;;;27.00;101347.00;;;;10485311;28;20564;-78
2021/06/04 13:02:16;;;;;;;14.85;13.30;;;;;26.20;101342.00;;;;10499878;28;20220;-77
2021/06/04 13:07:31;;;;;;;17.00;14.68;;;;;25.40;101370.00;;;;10471934;28;20268;-79
2021/06/04 13:12:34;;;;;;;10.40;3.38;;;;;23.50;101414.00;;;;10462701;28;20570;-78
2021/06/04 13:17:37;;;;;;;8.55;2.65;;;;;21.10;101453.00;;;;10498957;28;20219;-79
2021/06/04 13:22:41;;;;;;;24.60;6.80;;;;;19.60;101565.00;;;;10515623;28;20201;-77
2021/06/04 13:27:45;;;;;;;18.42;7.25;;;;;18.60;101627.00;;;;10499028;28;20651;-77
2021/06/04 13:32:51;;;;;;;12.43;5.35;;;;;17.80;101527.00;;;;10520177;28;20220;-77
2021/06/04 13:37:58;;;;;;;8.65;3.42;;;;;17.20;101483.00;;;;10528426;28;20309;-77
2021/06/04 13:43:05;;;;;;;5.07;3.75;;;;;16.90;101465.00;;;;10509143;28;20197;-77
2021/06/04 13:48:10;;;;;;;4.80;3.00;;;;;16.90;101445.00;;;;10511983;28;20185;-77
2021/06/04 13:53:11;;;;;;;6.47;2.33;;;;;17.10;101444.00;;;;10503073;28;20184;-77
2021/06/04 13:58:25;;;;;;;4.33;1.77;;;;;17.70;101408.00;;;;10505677;28;20236;-77
2021/06/04 14:03:29;;;;;;;2.22;1.42;;;;;19.40;101401.00;;;;10481997;28;20267;-77
2021/06/04 14:08:32;;;;;;;1.92;1.65;;;;;23.00;101391.00;;;;10489825;28;20212;-77
2021/06/04 14:13:46;;;;;;;1.70;1.40;;;;;24.70;101383.00;;;;10510973;28;20196;-77
2021/06/04 14:18:51;;;;;;;3.05;1.38;;;;;27.70;101364.00;;;;10504605;28;20217;-78
2021/06/04 14:24:01;;;;;;;5.25;1.70;;;;;29.80;101358.00;;;;10493281;28;20619;-78
2021/06/04 14:29:25;;;;;;;1.38;1.27;;;;;31.10;101363.00;;;;10469074;28;20268;-77
2021/06/04 14:34:39;;;;;;;2.28;1.70;;;;;31.40;101366.00;;;;10498746;28;21676;-78
2021/06/04 14:39:44;;;;;;;1.90;1.55;;;;;29.60;101389.00;;;;10499763;28;20267;-76
2021/06/04 14:44:47;;;;;;;2.10;1.38;;;;;26.30;101401.00;;;;10515591;28;20208;-76
2021/06/04 14:49:54;;;;;;;2.85;2.20;;;;;24.40;101412.00;;;;10471853;28;20189;-76
2021/06/04 14:54:56;;;;;;;5.57;2.83;;;;;23.00;101418.00;;;;10492856;28;20196;-76
2021/06/04 15:00:01;;;;;;;3.13;2.38;;;;;22.50;101414.00;;;;10514857;28;20202;-76
2021/06/04 15:05:06;;;;;;;4.25;2.22;;;;;22.40;101432.00;;;;10538659;28;20189;-75
2021/06/04 15:10:10;;;;;;;2.05;1.40;;;;;22.30;101434.00;;;;10458198;28;20197;-76
2021/06/04 15:15:15;;;;;;;2.92;2.70;;;;;22.60;101410.00;;;;10494092;28;20192;-76
2021/06/04 15:20:18;;;;;;;3.00;2.70;;;;;22.70;101405.00;;;;10488821;28;20216;-76
2021/06/04 15:25:31;;;;;;;5.57;3.35;;;;;22.90;101415.00;;;;10514881;28;20193;-76
2021/06/04 15:30:34;;;;;;;4.15;2.25;;;;;23.00;101420.00;;;;10514944;28;20192;-76
2021/06/04 15:35:36;;;;;;;2.35;2.15;;;;;22.90;101412.00;;;;10520283;28;20944;-76
2021/06/04 15:40:39;;;;;;;5.35;2.55;;;;;22.50;101416.00;;;;10487353;28;20831;-76
2021/06/04 15:45:41;;;;;;;4.68;2.05;;;;;22.30;101433.00;;;;10456569;28;20196;-76
2021/06/04 15:50:43;;;;;;;3.90;2.47;;;;;22.20;101421.00;;;;10481735;28;20217;-76
2021/06/04 15:55:45;;;;;;;5.05;2.47;;;;;22.00;101430.00;;;;10483652;28;20205;-76
2021/06/04 16:00:47;;;;;;;7.72;3.15;;;;;21.60;101438.00;;;;10478305;28;20556;-76
2021/06/04 16:05:49;;;;;;;3.65;3.35;;;;;21.40;101442.00;;;;10505992;28;20238;-76
2021/06/04 16:10:51;;;;;;;5.72;3.70;;;;;21.60;101431.00;;;;10502599;28;20637;-76
2021/06/04 16:15:53;;;;;;;5.93;5.32;;;;;21.70;101434.00;;;;10517389;28;20283;-77
2021/06/04 16:20:56;;;;;;;6.05;5.50;;;;;21.60;101419.00;;;;10511158;28;20532;-76
2021/06/04 16:26:02;;;;;;;5.93;4.72;;;;;21.50;101419.00;;;;10509788;28;20193;-76
2021/06/04 16:31:05;;;;;;;6.80;5.88;;;;;21.20;101419.00;;;;10496951;28;20700;-76
2021/06/04 16:36:11;;;;;;;7.55;6.90;;;;;21.00;101414.00;;;;10506612;28;20228;-76
2021/06/04 16:41:13;;;;;;;11.18;9.60;;;;;20.80;101432.00;;;;10526789;28;20217;-77
2021/06/04 16:46:15;;;;;;;11.38;10.10;;;;;20.40;101450.00;;;;10486464;28;20650;-76
2021/06/04 16:51:20;;;;;;;12.88;9.93;;;;;20.10;101451.00;;;;10499465;28;20193;-76
2021/06/04 16:56:36;;;;;;;13.80;12.25;;;;;19.90;101464.00;;;;10489611;28;20201;-77
2021/06/04 17:01:37;;;;;;;19.75;13.20;;;;;19.50;101464.00;;;;10492546;28;20217;-78
2021/06/04 17:06:40;;;;;;;14.43;7.40;;;;;19.10;101470.00;;;;10512139;28;20192;-78
2021/06/04 17:11:42;;;;;;;15.00;10.80;;;;;18.80;101483.00;;;;10496928;28;20186;-79
2021/06/04 17:16:44;;;;;;;18.40;11.70;;;;;18.70;101480.00;;;;10478553;28;20567;-80
2021/06/04 17:21:48;;;;;;;17.50;12.98;;;;;18.60;101465.00;;;;10485690;28;20209;-78
2021/06/04 17:26:49;;;;;;;20.83;14.98;;;;;18.50;101481.00;;;;10493533;28;20189;-78
2021/06/04 17:31:51;;;;;;;21.25;15.82;;;;;18.50;101507.00;;;;10471197;28;20563;-77
2021/06/04 17:36:53;;;;;;;17.98;14.75;;;;;18.40;101513.00;;;;10485331;28;20201;-77
2021/06/04 17:41:55;;;;;;;21.42;16.33;;;;;18.40;101495.00;;;;10483829;28;20244;-78
2021/06/04 17:46:57;;;;;;;23.88;16.30;;;;;18.30;101473.00;;;;10485550;28;20196;-80
2021/06/04 17:51:59;;;;;;;18.27;16.23;;;;;18.30;101460.00;;;;10479623;28;20652;-80
2021/06/04 17:57:10;;;;;;;24.42;18.63;;;;;18.30;101448.00;;;;10467516;28;20280;-79
2021/06/04 18:02:13;;;;;;;25.65;20.52;;;;;18.30;101432.00;;;;10484859;28;20263;-79
2021/06/04 18:07:15;;;;;;;29.42;23.75;;;;;18.30;101436.00;;;;10468369;28;20193;-79
2021/06/04 18:12:17;;;;;;;21.93;16.77;;;;;18.30;101445.00;;;;10484881;28;20192;-79
2021/06/04 18:17:19;;;;;;;12.93;11.30;;;;;18.20;101448.00;;;;10467376;28;20195;-78
2021/06/04 18:22:21;;;;;;;13.32;8.27;;;;;18.00;101451.00;;;;10483538;28;20679;-78
2021/06/04 18:27:23;;;;;;;11.40;8.70;;;;;17.90;101435.00;;;;10468574;28;20207;-78
2021/06/04 18:32:26;;;;;;;11.70;8.77;;;;;17.90;101425.00;;;;10434830;28;20214;-78
2021/06/04 18:37:28;;;;;;;11.40;9.55;;;;;17.90;101430.00;;;;10483791;28;20243;-79
2021/06/04 18:42:31;;;;;;;13.73;10.57;;;;;17.80;101432.00;;;;10483272;28;20213;-79
2021/06/04 18:47:33;;;;;;;11.43;10.23;;;;;17.80;101443.00;;;;10437837;28;20647;-79
2021/06/04 18:52:35;;;;;;;13.33;9.80;;;;;17.80;101437.00;;;;10492154;28;20210;-79
2021/06/04 18:57:38;;;;;;;10.95;9.85;;;;;17.80;101436.00;;;;10525757;28;20196;-79
2021/06/04 19:02:40;;;;;;;11.68;10.18;;;;;17.80;101418.00;;;;10523487;28;20304;-78
2021/06/04 19:07:42;;;;;;;11.63;10.50;;;;;17.80;101418.00;;;;10490447;28;20606;-79
2021/06/04 19:12:44;;;;;;;12.77;9.87;;;;;17.80;101428.00;;;;10490500;28;20216;-79
2021/06/04 19:17:46;;;;;;;9.90;8.63;;;;;17.70;101416.00;;;;10472952;28;20197;-79
2021/06/04 19:22:49;;;;;;;9.77;8.23;;;;;17.70;101399.00;;;;10506725;28;20224;-79
2021/06/04 19:27:51;;;;;;;10.50;8.47;;;;;17.70;101391.00;;;;10507483;28;20204;-79
2021/06/04 19:32:54;;;;;;;11.10;9.63;;;;;17.70;101373.00;;;;10505596;28;20262;-79
2021/06/04 19:37:57;;;;;;;11.43;8.40;;;;;17.60;101371.00;;;;10496960;28;20195;-79
2021/06/04 19:43:01;;;;;;;9.77;8.60;;;;;17.50;101358.00;;;;10514357;28;20216;-79
2021/06/04 19:48:03;;;;;;;14.33;9.73;;;;;17.40;101381.00;;;;10498203;28;20204;-77
2021/06/04 19:53:05;;;;;;;12.73;10.73;;;;;17.30;101390.00;;;;10499378;28;20193;-77
2021/06/04 19:58:08;;;;;;;17.23;11.03;;;;;17.30;101384.00;;;;10484587;28;20204;-79
2021/06/04 20:03:13;;;;;;;12.10;10.67;;;;;17.20;101389.00;;;;10507586;28;20353;-76
2021/06/04 20:08:15;;;;;;;14.53;11.80;;;;;17.10;101384.00;;;;10513856;28;20200;-79
2021/06/04 20:13:20;;;;;;;13.23;11.57;;;;;17.10;101396.00;;;;10530621;28;20536;-79
2021/06/04 20:18:24;;;;;;;14.97;12.27;;;;;17.10;101424.00;;;;10513349;28;20200;-78
2021/06/04 20:23:28;;;;;;;18.13;14.37;;;;;17.10;101432.00;;;;10512640;28;20643;-78
2021/06/04 20:28:32;;;;;;;27.13;17.73;;;;;17.10;101447.00;;;;10514234;28;20557;-79
2021/06/04 20:33:38;;;;;;;36.87;22.80;;;;;17.00;101470.00;;;;10513649;28;20603;-78
2021/06/04 20:38:41;;;;;;;34.63;25.73;;;;;17.20;101481.00;;;;10520669;28;20219;-79
2021/06/04 20:43:44;;;;;;;46.20;31.70;;;;;17.30;101496.00;;;;10505105;28;20204;-80
2021/06/04 20:48:46;;;;;;;43.03;30.67;;;;;17.40;101492.00;;;;10514092;28;20193;-79
2021/06/04 20:53:53;;;;;;;46.03;30.90;;;;;17.40;101500.00;;;;10514358;28;20648;-78
2021/06/04 20:58:55;;;;;;;44.40;33.00;;;;;17.40;101513.00;;;;10514625;28;20657;-78
2021/06/04 21:03:58;;;;;;;44.00;30.83;;;;;17.40;101513.00;;;;10531064;28;20196;-78
2021/06/04 21:09:00;;;;;;;40.03;31.67;;;;;17.40;101518.00;;;;10530731;28;20189;-78
2021/06/04 21:14:03;;;;;;;52.10;37.00;;;;;17.40;101528.00;;;;10513030;28;20227;-79
2021/06/04 21:19:05;;;;;;;58.58;39.75;;;;;17.40;101532.00;;;;10513844;28;20213;-78
2021/06/04 21:24:08;;;;;;;76.80;44.83;;;;;17.30;101531.00;;;;10508436;28;20205;-81
2021/06/04 21:29:10;;;;;;;65.53;44.03;;;;;17.30;101533.00;;;;10489126;28;20630;-79
2021/06/04 21:34:12;;;;;;;71.33;48.60;;;;;17.30;101525.00;;;;10527837;28;20231;-80
2021/06/04 21:39:15;;;;;;;92.80;57.27;;;;;17.30;101530.00;;;;10510724;28;20618;-78
2021/06/04 21:44:17;;;;;;;116.00;63.47;;;;;17.20;101524.00;;;;10502529;28;20193;-79
2021/06/04 21:49:20;;;;;;;98.63;61.13;;;;;17.20;101518.00;;;;10463203;28;20197;-78
2021/06/04 21:54:22;;;;;;;137.20;70.50;;;;;17.20;101530.00;;;;10458428;28;20196;-78
2021/06/04 21:59:27;;;;;;;136.60;76.93;;;;;17.20;101533.00;;;;10487936;28;20212;-78
2021/06/04 22:04:29;;;;;;;135.60;73.83;;;;;17.20;101518.00;;;;10462350;28;20188;-78
2021/06/04 22:09:33;;;;;;;153.87;79.73;;;;;17.20;101524.00;;;;10501867;28;20200;-80
2021/06/04 22:14:35;;;;;;;149.13;81.93;;;;;17.20;101524.00;;;;10505008;28;20193;-80
2021/06/04 22:19:36;;;;;;;154.53;80.50;;;;;17.20;101526.00;;;;10507778;28;20201;-79
2021/06/04 22:24:38;;;;;;;146.97;78.47;;;;;17.10;101527.00;;;;10480217;28;20768;-80
2021/06/04 22:29:40;;;;;;;175.77;82.73;;;;;17.10;101528.00;;;;10475397;28;20195;-78
2021/06/04 22:34:42;;;;;;;169.27;81.53;;;;;17.10;101521.00;;;;10523747;28;20220;-80
2021/06/04 22:39:44;;;;;;;170.53;84.17;;;;;17.10;101518.00;;;;10450891;28;20217;-78
2021/06/04 22:44:46;;;;;;;142.27;78.53;;;;;17.00;101510.00;;;;10438532;28;20205;-79
2021/06/04 22:49:48;;;;;;;165.90;82.30;;;;;17.00;101506.00;;;;10525462;28;20189;-79
2021/06/04 22:54:51;;;;;;;202.57;91.53;;;;;17.00;101499.00;;;;10479351;28;20820;-79
2021/06/04 22:59:53;;;;;;;201.87;92.33;;;;;17.00;101500.00;;;;10494724;28;20209;-78
2021/06/04 23:04:55;;;;;;;207.00;95.63;;;;;17.00;101494.00;;;;10523171;28;20203;-79
2021/06/04 23:09:57;;;;;;;244.43;102.27;;;;;16.90;101480.00;;;;10490044;28;20246;-79
2021/06/04 23:14:59;;;;;;;201.10;97.93;;;;;16.80;101475.00;;;;10490865;28;20253;-79
2021/06/04 23:20:05;;;;;;;275.23;103.53;;;;;16.70;101472.00;;;;10509509;28;20216;-78
2021/06/04 23:25:10;;;;;;;240.33;104.83;;;;;16.60;101477.00;;;;10499063;28;20185;-78
2021/06/04 23:30:15;;;;;;;241.80;108.83;;;;;16.50;101475.00;;;;10475627;28;20197;-78
2021/06/04 23:35:17;;;;;;;237.97;108.67;;;;;16.50;101471.00;;;;10476003;28;20228;-78
2021/06/04 23:40:25;;;;;;;339.20;120.90;;;;;16.40;101462.00;;;;10489999;28;20197;-78
2021/06/04 23:45:35;;;;;;;337.03;122.70;;;;;16.40;101458.00;;;;10470601;28;20193;-78
2021/06/04 23:50:37;;;;;;;256.20;115.53;;;;;16.30;101455.00;;;;10476497;28;20200;-78
2021/06/04 23:55:39;;;;;;;343.73;128.33;;;;;16.30;101461.00;;;;10487568;28;20197;-79
